createdAt,value
2019-05-17T00:02:12.597Z,14.70
2019-05-17T00:04:43.173Z,14.95
2019-05-17T00:07:13.678Z,13.20
2019-05-17T00:09:44.171Z,12.80
2019-05-17T00:12:16.631Z,7.95
2019-05-17T00:14:47.270Z,10.77
2019-05-17T00:17:17.873Z,12.35
2019-05-17T00:19:48.240Z,9.20
2019-05-17T00:22:18.767Z,10.80
2019-05-17T00:24:49.220Z,10.10
2019-05-17T00:27:19.661Z,10.23
2019-05-17T00:29:50.252Z,9.53
2019-05-17T00:32:20.637Z,22.17
2019-05-17T00:34:51.061Z,19.73
2019-05-17T00:37:21.471Z,14.50
2019-05-17T00:39:52.068Z,12.70
2019-05-17T00:42:22.517Z,13.50
2019-05-17T00:44:53.054Z,19.73
2019-05-17T00:47:23.498Z,15.03
2019-05-17T00:49:53.957Z,13.48
2019-05-17T00:52:24.380Z,17.30
2019-05-17T00:54:56.346Z,16.67
2019-05-17T00:57:27.469Z,15.60
2019-05-17T00:59:58.008Z,18.07
2019-05-17T01:02:28.460Z,12.85
2019-05-17T01:04:58.849Z,17.70
2019-05-17T01:07:29.390Z,15.45
2019-05-17T01:09:59.858Z,15.70
2019-05-17T01:12:30.283Z,12.05
2019-05-17T01:15:00.816Z,15.90
2019-05-17T01:17:31.262Z,23.00
2019-05-17T01:20:01.743Z,13.22
2019-05-17T01:22:32.318Z,15.50
2019-05-17T01:25:02.800Z,20.30
2019-05-17T01:27:33.292Z,24.95
2019-05-17T01:30:03.781Z,15.50
2019-05-17T01:32:34.258Z,22.32
2019-05-17T01:35:07.018Z,16.40
2019-05-17T01:37:37.306Z,17.97
2019-05-17T01:40:08.044Z,19.30
2019-05-17T01:42:38.497Z,16.00
2019-05-17T01:45:09.200Z,15.43
2019-05-17T01:47:39.650Z,20.97
2019-05-17T01:50:11.621Z,18.73
2019-05-17T01:52:42.149Z,17.67
2019-05-17T01:55:12.610Z,21.60
2019-05-17T01:57:43.044Z,19.32
2019-05-17T02:00:17.276Z,19.70
2019-05-17T02:02:48.701Z,22.27
2019-05-17T02:05:19.693Z,18.77
2019-05-17T02:07:50.146Z,22.42
2019-05-17T02:10:21.094Z,23.60
2019-05-17T02:12:51.580Z,19.05
2019-05-17T02:15:22.468Z,24.85
2019-05-17T02:17:52.858Z,22.67
2019-05-17T02:20:23.937Z,22.40
2019-05-17T02:22:56.371Z,20.95
2019-05-17T02:25:27.224Z,20.70
2019-05-17T02:27:57.874Z,19.55
2019-05-17T02:30:28.355Z,23.35
2019-05-17T02:33:03.392Z,23.18
2019-05-17T02:35:33.663Z,23.95
2019-05-17T02:38:04.078Z,24.57
2019-05-17T02:40:34.572Z,21.07
2019-05-17T02:43:05.096Z,27.00
2019-05-17T02:45:35.535Z,21.87
2019-05-17T02:48:05.996Z,28.85
2019-05-17T02:50:36.415Z,26.93
2019-05-17T02:53:06.843Z,27.30
2019-05-17T02:55:37.332Z,29.63
2019-05-17T02:58:07.821Z,25.68
2019-05-17T03:00:38.250Z,26.10
2019-05-17T03:03:08.709Z,31.05
2019-05-17T03:05:42.817Z,33.83
2019-05-17T03:08:12.279Z,30.00
2019-05-17T03:10:43.461Z,35.00
2019-05-17T03:13:17.633Z,29.85
2019-05-17T03:15:46.053Z,29.92
2019-05-17T03:18:16.549Z,33.90
2019-05-17T03:20:46.998Z,31.25
2019-05-17T03:23:17.479Z,33.70
2019-05-17T03:25:47.884Z,39.38
2019-05-17T03:28:18.334Z,29.07
2019-05-17T03:30:55.642Z,36.90
2019-05-17T03:33:26.412Z,36.60
2019-05-17T03:35:56.458Z,29.18
2019-05-17T03:38:27.905Z,35.43
2019-05-17T03:41:13.482Z,36.08
2019-05-17T03:43:30.604Z,39.78
2019-05-17T03:46:02.652Z,36.63
2019-05-17T03:48:33.658Z,36.35
2019-05-17T03:51:04.140Z,39.78
2019-05-17T03:53:34.617Z,37.83
2019-05-17T03:56:05.255Z,35.03
2019-05-17T03:58:35.732Z,34.55
2019-05-17T04:01:06.220Z,36.25
2019-05-17T04:03:36.731Z,40.92
2019-05-17T04:06:07.169Z,35.80
2019-05-17T04:08:37.673Z,36.20
2019-05-17T04:11:22.475Z,35.05
2019-05-17T04:13:43.036Z,32.58
2019-05-17T04:16:13.922Z,28.05
2019-05-17T04:18:44.862Z,37.75
2019-05-17T04:21:15.251Z,32.10
2019-05-17T04:23:45.843Z,32.17
2019-05-17T04:26:16.304Z,30.50
2019-05-17T04:28:46.755Z,37.48
2019-05-17T04:31:17.278Z,38.78
2019-05-17T04:33:47.745Z,32.53
2019-05-17T04:36:18.334Z,35.08
2019-05-17T04:38:48.809Z,36.77
2019-05-17T04:41:38.773Z,33.80
2019-05-17T04:43:53.222Z,34.58
2019-05-17T04:46:23.827Z,39.03
2019-05-17T04:48:54.357Z,30.00
2019-05-17T04:51:24.820Z,34.85
2019-05-17T04:53:55.315Z,30.27
2019-05-17T04:56:25.828Z,35.55
2019-05-17T04:58:56.314Z,36.85
2019-05-17T05:01:26.875Z,39.73
2019-05-17T05:03:57.371Z,27.90
2019-05-17T05:06:32.561Z,36.45
2019-05-17T05:09:02.753Z,36.43
2019-05-17T05:11:33.439Z,39.73
2019-05-17T05:14:04.021Z,36.93
2019-05-17T05:16:34.478Z,40.58
2019-05-17T05:19:04.955Z,35.50
2019-05-17T05:21:35.424Z,39.48
2019-05-17T05:24:05.920Z,39.67
2019-05-17T05:26:36.391Z,35.40
2019-05-17T05:29:06.863Z,38.42
2019-05-17T05:31:37.343Z,32.55
2019-05-17T05:34:07.811Z,31.07
2019-05-17T05:36:38.364Z,36.40
2019-05-17T05:39:11.524Z,29.30
2019-05-17T05:41:42.720Z,29.80
2019-05-17T05:44:13.313Z,26.75
2019-05-17T05:46:43.807Z,27.52
2019-05-17T05:49:14.295Z,31.90
2019-05-17T05:51:44.847Z,27.75
2019-05-17T05:54:15.327Z,35.53
2019-05-17T05:56:45.796Z,28.12
2019-05-17T05:59:16.314Z,24.43
2019-05-17T06:01:46.772Z,23.33
2019-05-17T06:04:17.260Z,21.87
2019-05-17T06:06:47.754Z,22.98
2019-05-17T06:09:18.264Z,24.87
2019-05-17T06:11:48.743Z,21.52
2019-05-17T06:14:21.459Z,19.52
2019-05-17T06:16:52.050Z,22.73
2019-05-17T06:19:22.714Z,19.92
2019-05-17T06:21:53.195Z,19.92
2019-05-17T06:24:23.711Z,21.10
2019-05-17T06:26:54.285Z,20.37
2019-05-17T06:29:24.828Z,22.45
2019-05-17T06:31:55.310Z,20.20
2019-05-17T06:34:25.778Z,19.82
2019-05-17T06:36:56.331Z,19.70
2019-05-17T06:39:26.745Z,21.23
2019-05-17T06:41:57.213Z,21.30
2019-05-17T06:44:27.741Z,20.97
2019-05-17T06:46:58.232Z,22.75
2019-05-17T06:49:28.749Z,21.87
2019-05-17T06:51:59.279Z,19.50
2019-05-17T06:54:29.737Z,19.33
2019-05-17T06:57:03.068Z,22.37
2019-05-17T06:59:32.436Z,19.05
2019-05-17T07:02:02.936Z,19.87
2019-05-17T07:04:33.411Z,15.80
2019-05-17T07:07:21.698Z,16.90
2019-05-17T07:09:52.225Z,15.20
2019-05-17T07:12:22.701Z,18.37
2019-05-17T07:14:53.262Z,16.10
2019-05-17T07:17:24.310Z,12.75
2019-05-17T07:19:54.774Z,11.88
2019-05-17T07:22:25.331Z,10.60
2019-05-17T07:24:55.810Z,8.80
2019-05-17T07:27:37.944Z,11.00
2019-05-17T07:29:59.278Z,10.20
2019-05-17T07:32:29.971Z,9.23
2019-05-17T07:35:00.565Z,9.63
2019-05-17T07:37:31.338Z,10.15
2019-05-17T07:40:05.110Z,9.05
2019-05-17T07:42:34.275Z,10.95
2019-05-17T07:45:05.588Z,11.57
2019-05-17T07:47:36.106Z,10.95
2019-05-17T07:50:10.832Z,9.85
2019-05-17T07:52:40.475Z,13.00
2019-05-17T07:55:11.380Z,11.38
2019-05-17T07:57:41.931Z,12.93
2019-05-17T08:00:14.358Z,14.18
2019-05-17T08:02:44.822Z,10.85
2019-05-17T08:05:15.816Z,13.70
2019-05-17T08:07:46.467Z,13.80
2019-05-17T08:10:20.196Z,13.58
2019-05-17T08:12:49.929Z,12.95
2019-05-17T08:15:20.472Z,14.20
2019-05-17T08:17:50.952Z,17.35
2019-05-17T08:20:21.443Z,14.73
2019-05-17T08:22:52.028Z,11.97
2019-05-17T08:25:22.657Z,12.45
2019-05-17T08:27:53.125Z,11.68
2019-05-17T08:30:24.318Z,9.93
2019-05-17T08:32:54.798Z,12.20
2019-05-17T08:35:25.323Z,13.13
2019-05-17T08:37:55.844Z,16.20
2019-05-17T08:40:26.328Z,12.93
2019-05-17T08:42:56.924Z,14.33
2019-05-17T08:45:29.499Z,10.20
2019-05-17T08:48:00.384Z,12.23
2019-05-17T08:50:31.291Z,11.22
2019-05-17T08:53:02.048Z,8.30
2019-05-17T08:55:32.549Z,8.05
2019-05-17T08:58:03.245Z,9.85
2019-05-17T09:00:33.765Z,10.00
2019-05-17T09:03:04.395Z,8.20
2019-05-17T09:05:34.889Z,9.07
2019-05-17T09:08:05.477Z,7.80
2019-05-17T09:10:36.022Z,9.85
2019-05-17T09:13:06.567Z,10.37
2019-05-17T09:15:37.062Z,9.45
2019-05-17T09:18:09.804Z,10.20
2019-05-17T09:20:40.580Z,8.03
2019-05-17T09:23:11.514Z,10.88
2019-05-17T09:25:42.011Z,11.83
2019-05-17T09:28:12.571Z,10.70
2019-05-17T09:30:45.648Z,10.32
2019-05-17T09:33:16.172Z,7.33
2019-05-17T09:35:46.723Z,9.85
2019-05-17T09:38:17.251Z,10.45
2019-05-17T09:40:47.718Z,11.95
2019-05-17T09:43:20.700Z,9.10
2019-05-17T09:45:51.473Z,9.13
2019-05-17T09:48:21.911Z,11.70
2019-05-17T09:50:52.402Z,13.40
2019-05-17T09:53:23.708Z,10.23
2019-05-17T09:55:54.343Z,11.48
2019-05-17T09:58:24.888Z,11.88
2019-05-17T10:00:55.475Z,10.08
2019-05-17T10:03:26.076Z,12.63
2019-05-17T10:05:56.564Z,10.15
2019-05-17T10:08:27.204Z,11.15
2019-05-17T10:11:06.009Z,9.75
2019-05-17T10:13:29.964Z,11.22
2019-05-17T10:16:00.597Z,12.33
2019-05-17T10:18:31.601Z,10.18
2019-05-17T10:21:02.109Z,11.27
2019-05-17T10:23:32.743Z,11.95
2019-05-17T10:26:10.590Z,13.22
2019-05-17T10:28:56.178Z,12.30
2019-05-17T10:31:30.251Z,8.33
2019-05-17T10:34:16.853Z,11.45
2019-05-17T10:36:50.532Z,10.75
2019-05-17T10:39:20.107Z,16.10
2019-05-17T10:41:53.974Z,10.45
2019-05-17T10:44:24.595Z,10.55
2019-05-17T10:46:55.217Z,10.08
2019-05-17T10:49:25.838Z,11.18
2019-05-17T10:51:56.382Z,11.12
2019-05-17T10:54:29.964Z,9.30
2019-05-17T10:57:00.205Z,11.15
2019-05-17T10:59:30.666Z,9.63
2019-05-17T11:02:01.208Z,11.18
2019-05-17T11:04:31.852Z,9.78
2019-05-17T11:07:02.380Z,10.60
2019-05-17T11:09:32.936Z,7.75
2019-05-17T11:12:03.585Z,9.58
2019-05-17T11:14:38.327Z,10.10
2019-05-17T11:17:06.762Z,10.58
2019-05-17T11:19:37.468Z,8.90
2019-05-17T11:22:08.070Z,10.20
2019-05-17T11:24:38.600Z,10.80
2019-05-17T11:27:09.215Z,9.65
2019-05-17T11:29:39.979Z,10.08
2019-05-17T11:32:10.614Z,9.40
2019-05-17T11:34:41.161Z,10.28
2019-05-17T11:37:11.899Z,9.48
2019-05-17T11:39:42.664Z,7.83
2019-05-17T11:42:13.474Z,8.80
2019-05-17T11:44:44.200Z,10.58
2019-05-17T11:47:14.939Z,12.68
2019-05-17T11:49:45.624Z,9.23
2019-05-17T11:52:16.460Z,9.25
2019-05-17T11:54:46.849Z,9.15
2019-05-17T11:57:17.492Z,10.78
2019-05-17T11:59:49.901Z,8.43
2019-05-17T12:02:21.609Z,8.93
2019-05-17T12:04:53.767Z,8.78
2019-05-17T12:07:24.639Z,8.63
2019-05-17T12:09:55.442Z,10.10
2019-05-17T12:12:26.191Z,7.95
2019-05-17T12:14:56.838Z,11.33
2019-05-17T12:17:27.539Z,11.20
2019-05-17T12:19:58.396Z,9.35
2019-05-17T12:22:29.012Z,12.30
2019-05-17T12:25:00.020Z,9.65
2019-05-17T12:27:30.612Z,9.85
2019-05-17T12:30:01.119Z,9.35
2019-05-17T12:32:31.740Z,14.63
2019-05-17T12:35:02.465Z,8.25
2019-05-17T12:37:33.432Z,8.65
2019-05-17T12:40:04.016Z,9.03
2019-05-17T12:42:34.554Z,8.75
2019-05-17T12:45:05.351Z,9.20
2019-05-17T12:47:35.974Z,10.13
2019-05-17T12:50:06.676Z,9.40
2019-05-17T12:52:37.536Z,12.80
2019-05-17T12:55:08.250Z,11.30
2019-05-17T12:57:38.810Z,9.10
2019-05-17T13:00:11.651Z,10.35
2019-05-17T13:02:42.260Z,8.58
2019-05-17T13:05:13.193Z,7.97
2019-05-17T13:07:43.781Z,9.03
2019-05-17T13:10:18.615Z,10.23
2019-05-17T13:12:49.128Z,8.88
2019-05-17T13:15:20.852Z,9.90
2019-05-17T13:17:51.754Z,9.77
2019-05-17T13:20:26.762Z,10.43
2019-05-17T13:22:57.329Z,9.70
2019-05-17T13:25:27.969Z,8.23
2019-05-17T13:27:58.565Z,11.30
2019-05-17T13:30:29.189Z,8.95
2019-05-17T13:32:59.807Z,9.30
2019-05-17T13:35:30.427Z,9.18
2019-05-17T13:38:01.114Z,8.40
2019-05-17T13:40:39.244Z,8.90
2019-05-17T13:43:04.677Z,7.60
2019-05-17T13:45:36.136Z,9.03
2019-05-17T13:48:06.642Z,8.28
2019-05-17T13:50:38.991Z,12.15
2019-05-17T13:53:09.609Z,8.88
2019-05-17T13:55:40.402Z,10.18
2019-05-17T13:58:10.945Z,9.18
2019-05-17T14:00:41.649Z,7.37
2019-05-17T14:03:12.206Z,8.07
2019-05-17T14:05:42.706Z,9.28
2019-05-17T14:08:13.247Z,7.83
2019-05-17T14:10:44.132Z,9.10
2019-05-17T14:13:14.734Z,10.08
2019-05-17T14:15:46.063Z,9.20
2019-05-17T14:18:16.706Z,9.83
2019-05-17T14:20:47.217Z,9.78
2019-05-17T14:23:17.791Z,9.63
2019-05-17T14:25:48.474Z,11.20
2019-05-17T14:28:18.999Z,9.45
2019-05-17T14:30:49.496Z,12.47
2019-05-17T14:33:20.017Z,12.28
2019-05-17T14:35:50.580Z,17.95
2019-05-17T14:38:21.160Z,7.75
2019-05-17T14:41:06.686Z,8.80
2019-05-17T14:43:26.174Z,9.53
2019-05-17T14:45:56.692Z,10.55
2019-05-17T14:48:27.234Z,8.35
2019-05-17T14:50:57.743Z,8.40
2019-05-17T14:53:28.258Z,9.23
2019-05-17T14:55:58.784Z,8.13
2019-05-17T14:58:29.426Z,7.55
2019-05-17T15:00:59.961Z,7.72
2019-05-17T15:03:30.439Z,6.30
2019-05-17T15:06:00.989Z,7.08
2019-05-17T15:13:32.764Z,6.80
2019-05-17T15:16:03.459Z,6.53
2019-05-17T15:18:33.925Z,6.27
2019-05-17T15:21:04.773Z,6.83
2019-05-17T15:23:35.281Z,5.63
2019-05-17T15:26:05.783Z,7.80
2019-05-17T15:28:36.335Z,8.67
2019-05-17T15:31:06.855Z,25.77
2019-05-17T15:33:37.348Z,7.53
2019-05-17T15:36:07.969Z,7.33
2019-05-17T15:38:38.543Z,9.37
2019-05-17T15:41:09.126Z,10.93
2019-05-17T15:43:39.702Z,11.50
2019-05-17T15:46:10.255Z,10.48
2019-05-17T15:48:40.828Z,9.20
2019-05-17T15:51:11.610Z,10.25
2019-05-17T15:53:42.126Z,8.65
2019-05-17T15:56:12.561Z,9.23
2019-05-17T15:58:43.250Z,9.23
2019-05-17T16:01:15.888Z,9.83
2019-05-17T16:03:46.625Z,12.30
2019-05-17T16:06:17.241Z,8.30
2019-05-17T16:08:47.875Z,9.25
2019-05-17T16:11:18.812Z,10.23
2019-05-17T16:13:50.735Z,6.70
2019-05-17T16:16:21.318Z,8.75
2019-05-17T16:18:51.972Z,8.73
2019-05-17T16:21:22.587Z,7.45
2019-05-17T16:23:53.132Z,8.48
2019-05-17T16:26:23.681Z,7.65
2019-05-17T16:28:54.379Z,7.10
2019-05-17T16:31:25.687Z,7.08
2019-05-17T16:33:56.256Z,5.50
2019-05-17T16:36:26.923Z,7.72
2019-05-17T16:38:57.484Z,7.30
2019-05-17T16:41:29.092Z,6.28
2019-05-17T16:43:59.675Z,10.45
2019-05-17T16:46:30.306Z,9.20
2019-05-17T16:49:00.761Z,9.60
2019-05-17T16:51:31.323Z,7.70
2019-05-17T16:54:01.840Z,6.50
2019-05-17T16:56:32.607Z,5.50
2019-05-17T16:59:03.255Z,5.72
2019-05-17T17:01:33.865Z,10.20
2019-05-17T17:04:04.457Z,14.40
2019-05-17T17:06:34.990Z,16.48
2019-05-17T17:09:06.888Z,18.82
2019-05-17T17:11:37.415Z,18.75
2019-05-17T17:14:07.968Z,20.60
2019-05-17T17:16:38.422Z,17.75
2019-05-17T17:19:09.060Z,17.73
2019-05-17T17:21:39.647Z,18.20
2019-05-17T17:24:10.221Z,16.70
2019-05-17T17:26:40.797Z,20.05
2019-05-17T17:29:11.341Z,17.82
2019-05-17T17:31:41.909Z,20.45
2019-05-17T17:34:12.399Z,15.53
2019-05-17T17:36:42.857Z,15.35
2019-05-17T17:39:13.424Z,17.25
2019-05-17T17:41:43.903Z,25.63
2019-05-17T17:44:14.422Z,20.43
2019-05-17T17:46:44.987Z,19.48
2019-05-17T17:49:15.505Z,19.70
2019-05-17T17:51:46.074Z,14.60
2019-05-17T17:54:16.611Z,15.58
2019-05-17T17:56:47.139Z,18.45
2019-05-17T17:59:17.633Z,19.27
2019-05-17T18:01:48.289Z,20.62
2019-05-17T18:04:18.817Z,19.10
2019-05-17T18:06:49.325Z,19.32
2019-05-17T18:09:19.921Z,18.90
2019-05-17T18:11:50.462Z,18.23
2019-05-17T18:14:21.037Z,16.60
2019-05-17T18:16:51.582Z,17.20
2019-05-17T18:19:22.124Z,21.07
2019-05-17T18:21:52.723Z,20.60
2019-05-17T18:24:23.239Z,19.70
2019-05-17T18:26:53.822Z,20.92
2019-05-17T18:29:24.446Z,18.17
2019-05-17T18:31:55.013Z,20.52
2019-05-17T18:34:25.594Z,23.17
2019-05-17T18:36:56.215Z,22.85
2019-05-17T18:39:26.743Z,18.32
2019-05-17T18:41:57.347Z,19.37
2019-05-17T18:44:28.294Z,21.45
2019-05-17T18:46:58.784Z,19.67
2019-05-17T18:49:29.258Z,18.00
2019-05-17T18:51:59.974Z,22.20
2019-05-17T18:54:30.589Z,20.43
2019-05-17T18:57:01.279Z,21.27
2019-05-17T18:59:31.816Z,23.70
2019-05-17T19:02:02.532Z,20.45
2019-05-17T19:04:33.256Z,19.60
2019-05-17T19:07:03.915Z,20.65
2019-05-17T19:09:34.596Z,18.55
2019-05-17T19:12:05.433Z,19.42
2019-05-17T19:14:42.959Z,20.75
2019-05-17T19:17:09.182Z,21.15
2019-05-17T19:19:39.827Z,21.73
2019-05-17T19:22:10.489Z,19.57
2019-05-17T19:24:41.049Z,22.32
2019-05-17T19:27:11.650Z,22.23
2019-05-17T19:29:43.395Z,20.82
2019-05-17T19:32:14.224Z,19.23
2019-05-17T19:34:44.881Z,19.65
2019-05-17T19:37:16.066Z,22.58
2019-05-17T19:39:46.871Z,17.73
2019-05-17T19:42:17.844Z,20.82
2019-05-17T19:44:58.728Z,19.75
2019-05-17T19:47:20.978Z,19.80
2019-05-17T19:49:51.701Z,25.15
2019-05-17T19:52:22.553Z,19.07
2019-05-17T19:54:53.270Z,20.02
2019-05-17T19:57:24.053Z,22.58
2019-05-17T19:59:55.105Z,21.70
2019-05-17T20:02:25.875Z,21.52
2019-05-17T20:04:56.454Z,21.05
2019-05-17T20:07:39.759Z,25.02
2019-05-17T20:10:11.664Z,23.18
2019-05-17T20:12:42.268Z,19.65
2019-05-17T20:15:17.825Z,23.20
2019-05-17T20:17:45.983Z,24.80
2019-05-17T20:20:17.261Z,24.15
2019-05-17T20:22:47.863Z,26.73
2019-05-17T20:25:19.917Z,26.67
2019-05-17T20:27:50.444Z,26.85
2019-05-17T20:30:21.541Z,27.05
2019-05-17T20:32:52.104Z,29.35
2019-05-17T20:35:22.649Z,28.00
2019-05-17T20:37:53.301Z,29.00
2019-05-17T20:40:23.982Z,29.50
2019-05-17T20:42:54.533Z,29.90
2019-05-17T20:45:33.177Z,32.45
2019-05-17T20:47:57.791Z,32.20
2019-05-17T20:50:28.393Z,33.38
2019-05-17T20:52:59.028Z,36.58
2019-05-17T20:55:29.617Z,35.00
2019-05-17T20:58:00.287Z,34.75
2019-05-17T21:00:30.980Z,36.57
2019-05-17T21:03:01.609Z,40.45
2019-05-17T21:05:32.191Z,39.42
2019-05-17T21:08:02.941Z,46.73
2019-05-17T21:10:33.438Z,40.45
2019-05-17T21:13:04.017Z,39.40
2019-05-17T21:15:47.053Z,42.93
2019-05-17T21:18:06.888Z,40.50
2019-05-17T21:20:37.855Z,41.53
2019-05-17T21:23:08.435Z,39.78
2019-05-17T21:25:38.957Z,36.53
2019-05-17T21:28:09.482Z,42.60
2019-05-17T21:30:40.064Z,37.30
2019-05-17T21:33:10.572Z,49.42
2019-05-17T21:35:41.131Z,50.78
2019-05-17T21:38:11.651Z,40.50
2019-05-17T21:40:42.173Z,39.65
2019-05-17T21:43:12.772Z,45.78
2019-05-17T21:45:43.268Z,40.70
2019-05-17T21:48:13.852Z,44.18
2019-05-17T21:50:44.412Z,47.75
2019-05-17T21:53:14.933Z,45.80
2019-05-17T21:55:45.461Z,50.23
2019-05-17T21:58:20.223Z,45.60
2019-05-17T22:01:19.256Z,48.02
2019-05-17T22:03:49.942Z,51.83
2019-05-17T22:06:20.672Z,47.17
2019-05-17T22:08:51.235Z,50.00
2019-05-17T22:11:21.779Z,46.50
2019-05-17T22:13:52.483Z,52.83
2019-05-17T22:16:22.965Z,55.53
2019-05-17T22:18:53.559Z,53.45
2019-05-17T22:21:24.066Z,52.00
2019-05-17T22:23:55.306Z,49.73
2019-05-17T22:26:25.853Z,59.50
2019-05-17T22:28:56.559Z,51.10
2019-05-17T22:31:27.058Z,54.70
2019-05-17T22:33:57.682Z,57.43
2019-05-17T22:36:28.462Z,61.10
2019-05-17T22:38:59.037Z,60.05
2019-05-17T22:41:29.640Z,58.90
2019-05-17T22:44:00.131Z,60.52
2019-05-17T22:46:35.948Z,61.80
2019-05-17T22:49:02.964Z,63.55
2019-05-17T22:51:33.619Z,62.98
2019-05-17T22:54:04.224Z,65.92
2019-05-17T22:56:34.799Z,67.67
2019-05-17T22:59:05.420Z,64.27
2019-05-17T23:01:35.907Z,67.37
2019-05-17T23:04:06.886Z,67.67
2019-05-17T23:06:37.435Z,64.37
2019-05-17T23:09:08.658Z,64.65
2019-05-17T23:11:39.349Z,65.45
2019-05-17T23:14:09.917Z,64.35
2019-05-17T23:16:51.217Z,61.70
2019-05-17T23:19:12.698Z,66.17
2019-05-17T23:21:43.282Z,67.35
2019-05-17T23:24:13.801Z,69.00
2019-05-17T23:26:44.260Z,61.92
2019-05-17T23:29:14.745Z,67.50
2019-05-17T23:31:45.263Z,68.47
2019-05-17T23:34:15.785Z,59.33
2019-05-17T23:36:46.334Z,60.15
2019-05-17T23:39:16.874Z,63.15
2019-05-17T23:41:47.416Z,58.63
2019-05-17T23:44:17.930Z,62.48
2019-05-17T23:46:48.445Z,56.37
2019-05-17T23:49:19.025Z,58.08
2019-05-17T23:51:49.465Z,62.33
2019-05-17T23:54:19.998Z,57.50
2019-05-17T23:56:50.584Z,58.13
2019-05-17T23:59:21.217Z,60.70
